• Join FlightAware (Why Join?)
  • Login
  • US Flag 
12:24AM EDT


 

Airport Tracker/Info


-or-


 

Live Flight TrackerFlight Track Log ✈ SWA920 ✈ 26-Apr-2013 ✈ KCHS - KBWI

Flight Track Log - Related Links

Times and Time Zones

All times are in EDT time to prevent confusion due to time zone crossing. See the SWA920 flight status page for this flight to view local times or setup timezone preferences in your user account.

Time Position Orientation Groundspeed Altitude Reporting Facility
EDT Latitude Longitude Course Direction KTS MPH feet Rate Location/Type
07:47PM 33.0353 -79.9986 15° North 222 255 6,500  Level Jacksonville Center
07:48PM 33.1097 -79.9739 16° North 245 282 10,500 3,300 Climbing Jacksonville Center
07:49PM 33.1856 -79.9167 32° Northeast 304 350 13,200 3,000 Climbing Jacksonville Center
07:50PM 33.2697 -79.8517 33° Northeast 322 371 16,500 3,000 Climbing Jacksonville Center
07:51PM 33.3914 -79.8784 North  Level FlightAware Approximate
07:51PM 33.3558 -79.7842 33° Northeast 350 403 19,300  Level Jacksonville Center
07:52PM 33.4478 -79.7139 33° Northeast 367 422 21,800 1,800 Climbing Jacksonville Center
07:53PM 33.5442 -79.6381 33° Northeast 391 450 23,000 1,260 Climbing Jacksonville Center
07:54PM 33.6400 -79.5622 33° Northeast 403 464 24,400 1,800 Climbing Jacksonville Center
07:55PM 33.7425 -79.4858 32° Northeast 420 483 26,700 2,160 Climbing Jacksonville Center
07:56PM 33.8303 -79.4150 34° Northeast 426 490 28,800 2,040 Climbing Jacksonville Center
07:57PM 33.9303 -79.3383 32° Northeast 421 484 30,800 2,280 Climbing Jacksonville Center
07:59PM 34.1114 -79.1936 33° Northeast 430 495 35,300 2,100 Climbing Washington Center
08:00PM 34.2053 -79.1225 32° Northeast 415 478 36,900 1,380 Climbing Washington Center
08:01PM 34.3017 -79.0386 36° Northeast 415 478 38,100 900 Climbing Washington Center
08:02PM 34.3953 -78.9719 30° Northeast 398 458 38,800 300 Climbing Washington Center
08:03PM 34.4933 -78.8981 32° Northeast 404 465 38,800 -900 Level Washington Center
08:04PM 34.5972 -78.8417 24° Northeast 409 471 37,000 -960 Descending Washington Center
08:05PM 34.7008 -78.7903 22° Northeast 397 457 37,000  Level Washington Center
08:06PM 34.8022 -78.7386 23° Northeast 397 457 37,000  Level Washington Center
08:07PM 34.9039 -78.6867 23° Northeast 397 457 37,000  Level Washington Center
08:08PM 35.0072 -78.6350 22° Northeast 397 457 37,000  Level Washington Center
08:09PM 35.1108 -78.5803 23° Northeast 397 457 37,000  Level Washington Center
08:10PM 35.2144 -78.5283 22° Northeast 397 457 37,000  Level Washington Center
08:11PM 35.3181 -78.4736 23° Northeast 397 457 37,000  Level Washington Center
08:12PM 35.4197 -78.4161 25° Northeast 403 464 37,000  Level Washington Center
08:13PM 35.5400 -78.3564 22° Northeast 403 464 37,000  Level Washington Center
08:14PM 35.6433 -78.3089 20° North 403 464 37,000  Level Washington Center
08:15PM 35.7467 -78.2561 23° Northeast 398 458 37,000  Level Washington Center
08:16PM 35.8500 -78.2033 22° Northeast 398 458 37,000  Level Washington Center
08:17PM 35.9536 -78.1478 23° Northeast 398 458 37,000  Level Washington Center
08:18PM 36.0569 -78.0944 23° Northeast 398 458 37,000  Level Washington Center
08:19PM 36.1622 -78.0414 22° Northeast 398 458 37,000 -300 Level Washington Center
08:20PM 36.2678 -77.9853 23° Northeast 398 458 36,400 -1,920 Descending Washington Center
08:21PM 36.3733 -77.9267 24° Northeast 398 458 33,200 -3,360 Descending Washington Center
08:22PM 36.4828 -77.8678 23° Northeast 398 458 29,800 -2,160 Descending Washington Center
08:23PM 36.5986 -77.8092 22° Northeast 422 486 29,000 -900 Descending Washington Center
08:24PM 36.7106 -77.7475 24° Northeast 434 499 28,100 -900 Descending Washington Center
08:25PM 36.8178 -77.6908 23° Northeast 429 494 27,200 -960 Descending Washington Center
08:26PM 36.9231 -77.6339 23° Northeast 418 481 26,200 -1,020 Descending Washington Center
08:27PM 37.0283 -77.5769 23° Northeast 413 475 25,200 -1,020 Descending Washington Center
08:28PM 37.1317 -77.5222 23° Northeast 408 470 24,200 -1,020 Descending Washington Center
08:29PM 37.2306 -77.4672 24° Northeast 397 457 23,200 -600 Descending Washington Center
08:30PM 37.3272 -77.4147 23° Northeast 386 444 23,000 -120 Descending Washington Center
08:31PM 37.4281 -77.3597 23° Northeast 380 437 23,000  Level Washington Center
08:32PM 37.5289 -77.3122 20° North 380 437 23,000  Level Washington Center
08:33PM 37.6336 -77.2911 North 380 437 23,000  Level Washington Center
08:34PM 37.7403 -77.2697 North 375 432 23,000  Level Washington Center
08:35PM 37.8469 -77.2486 North 375 432 23,000 -360 Level Washington Center
08:36PM 37.9514 -77.2272 North 380 437 22,400 -840 Descending Washington Center
08:37PM 38.0558 -77.2108 North 380 437 21,400 -1,320 Descending Washington Center
08:38PM 38.1625 -77.1869 10° North 380 437 19,800 -1,800 Descending Washington Center
08:39PM 38.2631 -77.1625 11° North 380 437 17,800 -2,220 Descending Washington Center
08:40PM 38.3592 -77.1433 North 367 422 15,400 -1,620 Descending Washington Center
08:41PM 38.4267 -77.0864 33° Northeast 348 400 14,700 -1,680 Descending Washington Center
08:42PM 38.5133 -76.9819 43° Northeast 348 400 12,000 -1,740 Descending Washington Center
08:43PM 38.5811 -76.8983 44° Northeast 337 388 11,300 -960 Descending Washington Center
08:44PM 38.6422 -76.8222 44° Northeast 322 371 10,100 -1,200 Descending Washington Center
08:45PM 38.6992 -76.7514 44° Northeast 295 339 9,000 -960 Descending Washington Center
08:46PM 38.7397 -76.6669 58° Northeast 283 326 8,300 -1,140 Descending Washington Center
08:46PM 38.7833 -76.5833 56° Northeast 283 326 6,900 -1,560 Descending Potomac TRACON
08:47PM 38.8333 -76.5167 46° Northeast 279 321 5,500 -1,440 Descending Potomac TRACON
08:48PM 38.8833 -76.5333 345° North 260 299 4,200 -1,200 Descending Potomac TRACON
08:49PM 38.9667 -76.5500 351° North 239 275 3,200 -660 Descending Potomac TRACON
08:51PM 39.0613 -76.6212 343° North  Level FlightAware Approximate
08:51PM 39.0833 -76.5833 343° North 183 211 2,300  Level Potomac TRACON
08:52PM 39.1167 -76.6167 322° Northwest 163 188 1,300 -900 Descending Potomac TRACON
08:53PM 39.1500 -76.6500 322° Northwest 139 160 500 -840 Descending Potomac TRACON
08:55PM 39.1667 -76.6667 339° North  Level FlightAware Approximate
09:02PM 39.1754 -76.6683 339° North  Level Estimated
09:03PM 39.1754 -76.6683 339° North  Level Estimated
09:04PM 39.1754 -76.6683 339° North  Level Estimated
09:05PM 39.1754 -76.6683 339° North  Level Estimated
09:06PM 39.1754 -76.6683 339° North  Level Estimated
09:07PM 39.1754 -76.6683 339° North  Level Estimated